Terminal Aerodrome Forecast
Issued by NWS

Home | Current Version | Previous Version | Text Only | Print | Product List | Glossary Off
Versions: 1 2 3 4 5 6 7 8 9 10 11 12

000
FTUS43 KDVN 112300
TAFCID
TAF
KCID 112320Z 1200/1224 14008KT P6SM BKN120
     FM120400 15006KT P6SM VCSH SCT025 BKN050
      TEMPO 1207/1211 5SM TSRA BR BKN015CB OVC025
     FM121300 19005KT P6SM SCT035 BKN100
     FM121900 21005KT P6SM OVC100=

USA.gov is the U.S. government's official web portal to all federal, state and local government web resources and services.